sensor_id;sensor_type;location;lat;lon;timestamp;pressure;altitude;pressure_sealevel;temperature;humidity
70921;BME280;58572;48.110;19.838;2022-10-17T00:00:39;99086.00;;;10.83;75.52
70921;BME280;58572;48.110;19.838;2022-10-17T00:03:06;99082.50;;;10.88;75.82
70921;BME280;58572;48.110;19.838;2022-10-17T00:05:38;99084.88;;;10.79;75.87
70921;BME280;58572;48.110;19.838;2022-10-17T00:08:05;99084.41;;;10.87;75.56
70921;BME280;58572;48.110;19.838;2022-10-17T00:10:32;99088.19;;;10.86;75.77
70921;BME280;58572;48.110;19.838;2022-10-17T00:13:01;99037.50;;;10.32;76.09
70921;BME280;58572;48.110;19.838;2022-10-17T00:15:28;99087.75;;;10.29;77.98
70921;BME280;58572;48.110;19.838;2022-10-17T00:17:55;99084.75;;;10.69;75.83
70921;BME280;58572;48.110;19.838;2022-10-17T00:20:23;99092.22;;;10.18;78.90
70921;BME280;58572;48.110;19.838;2022-10-17T00:22:50;99099.88;;;10.60;76.00
70921;BME280;58572;48.110;19.838;2022-10-17T00:25:17;99003.75;;;9.67;79.37
70921;BME280;58572;48.110;19.838;2022-10-17T00:27:44;99097.25;;;10.27;78.26
70921;BME280;58572;48.110;19.838;2022-10-17T00:30:14;99097.03;;;9.95;81.62
70921;BME280;58572;48.110;19.838;2022-10-17T00:32:42;99086.78;;;10.18;79.69
70921;BME280;58572;48.110;19.838;2022-10-17T00:35:09;99090.09;;;10.20;79.58
70921;BME280;58572;48.110;19.838;2022-10-17T00:37:36;99086.72;;;10.52;76.97
70921;BME280;58572;48.110;19.838;2022-10-17T00:40:04;99091.53;;;10.67;75.66
70921;BME280;58572;48.110;19.838;2022-10-17T00:42:31;99089.72;;;10.77;75.52
70921;BME280;58572;48.110;19.838;2022-10-17T00:45:04;99090.25;;;10.74;75.48
70921;BME280;58572;48.110;19.838;2022-10-17T00:47:34;99087.91;;;10.83;76.21
70921;BME280;58572;48.110;19.838;2022-10-17T00:50:03;99062.41;;;10.67;76.02
70921;BME280;58572;48.110;19.838;2022-10-17T00:52:31;99098.78;;;10.61;76.37
70921;BME280;58572;48.110;19.838;2022-10-17T00:54:59;99086.34;;;10.65;75.79
70921;BME280;58572;48.110;19.838;2022-10-17T00:57:29;99086.72;;;10.52;76.38
70921;BME280;58572;48.110;19.838;2022-10-17T00:59:58;99077.72;;;10.73;75.67
70921;BME280;58572;48.110;19.838;2022-10-17T01:02:28;99027.72;;;10.31;75.23
70921;BME280;58572;48.110;19.838;2022-10-17T01:04:56;99080.25;;;10.58;76.62
70921;BME280;58572;48.110;19.838;2022-10-17T01:07:26;99081.88;;;10.37;77.36
70921;BME280;58572;48.110;19.838;2022-10-17T01:09:54;99082.50;;;10.22;77.80
70921;BME280;58572;48.110;19.838;2022-10-17T01:12:24;99073.41;;;10.34;78.58
70921;BME280;58572;48.110;19.838;2022-10-17T01:15:04;99080.72;;;10.50;76.31
70921;BME280;58572;48.110;19.838;2022-10-17T01:17:39;99083.66;;;10.27;78.68
70921;BME280;58572;48.110;19.838;2022-10-17T01:20:36;99081.91;;;10.59;76.17
70921;BME280;58572;48.110;19.838;2022-10-17T01:23:26;99078.91;;;10.39;77.38
70921;BME280;58572;48.110;19.838;2022-10-17T01:26:01;99075.19;;;10.06;79.66
70921;BME280;58572;48.110;19.838;2022-10-17T01:28:59;99006.50;;;10.11;76.64
70921;BME280;58572;48.110;19.838;2022-10-17T01:31:35;99075.34;;;10.55;76.18
70921;BME280;58572;48.110;19.838;2022-10-17T01:34:08;99082.34;;;10.12;79.15
70921;BME280;58572;48.110;19.838;2022-10-17T01:36:42;99078.16;;;10.05;78.54
70921;BME280;58572;48.110;19.838;2022-10-17T01:39:17;99074.94;;;10.24;77.91
70921;BME280;58572;48.110;19.838;2022-10-17T01:41:48;99084.56;;;10.54;76.30
70921;BME280;58572;48.110;19.838;2022-10-17T01:44:21;99080.91;;;10.65;75.92
70921;BME280;58572;48.110;19.838;2022-10-17T01:46:59;99075.47;;;10.65;76.16
70921;BME280;58572;48.110;19.838;2022-10-17T01:49:28;99089.78;;;10.00;79.89
70921;BME280;58572;48.110;19.838;2022-10-17T01:52:01;99087.41;;;10.42;77.10
70921;BME280;58572;48.110;19.838;2022-10-17T01:54:32;99088.16;;;10.60;75.38
70921;BME280;58572;48.110;19.838;2022-10-17T01:57:06;99092.97;;;10.52;76.21
70921;BME280;58572;48.110;19.838;2022-10-17T01:59:38;99081.91;;;10.59;75.72
70921;BME280;58572;48.110;19.838;2022-10-17T02:02:08;99092.78;;;10.59;75.51
70921;BME280;58572;48.110;19.838;2022-10-17T02:04:36;99093.03;;;10.58;76.69
70921;BME280;58572;48.110;19.838;2022-10-17T02:07:06;99091.16;;;10.58;76.05
70921;BME280;58572;48.110;19.838;2022-10-17T02:09:34;99080.78;;;10.55;75.36
70921;BME280;58572;48.110;19.838;2022-10-17T02:12:24;99093.28;;;10.56;76.34
70921;BME280;58572;48.110;19.838;2022-10-17T02:15:02;99077.28;;;9.99;78.50
70921;BME280;58572;48.110;19.838;2022-10-17T02:17:43;99087.56;;;10.36;76.82
70921;BME280;58572;48.110;19.838;2022-10-17T02:20:19;99086.97;;;10.50;76.35
70921;BME280;58572;48.110;19.838;2022-10-17T02:22:54;99096.47;;;10.48;76.39
70921;BME280;58572;48.110;19.838;2022-10-17T02:25:30;99093.81;;;10.53;76.21
70921;BME280;58572;48.110;19.838;2022-10-17T02:28:06;99098.72;;;10.56;76.27
70921;BME280;58572;48.110;19.838;2022-10-17T02:30:42;99092.81;;;10.20;77.54
70921;BME280;58572;48.110;19.838;2022-10-17T02:33:13;99067.84;;;10.23;76.33
70921;BME280;58572;48.110;19.838;2022-10-17T02:35:46;99099.44;;;10.46;76.07
70921;BME280;58572;48.110;19.838;2022-10-17T02:38:15;99101.59;;;10.28;76.67
70921;BME280;58572;48.110;19.838;2022-10-17T02:40:45;99094.56;;;9.93;79.54
70921;BME280;58572;48.110;19.838;2022-10-17T02:43:13;99101.00;;;9.70;79.55
70921;BME280;58572;48.110;19.838;2022-10-17T02:45:40;99108.09;;;9.54;80.63
70921;BME280;58572;48.110;19.838;2022-10-17T02:48:09;99106.03;;;9.62;80.88
70921;BME280;58572;48.110;19.838;2022-10-17T02:50:46;99096.19;;;10.11;79.34
70921;BME280;58572;48.110;19.838;2022-10-17T02:53:20;99103.31;;;10.34;76.49
70921;BME280;58572;48.110;19.838;2022-10-17T02:55:56;99098.00;;;10.22;78.89
70921;BME280;58572;48.110;19.838;2022-10-17T02:58:27;99093.72;;;10.09;78.82
70921;BME280;58572;48.110;19.838;2022-10-17T03:00:56;99097.38;;;9.81;79.65
70921;BME280;58572;48.110;19.838;2022-10-17T03:03:25;99097.34;;;9.98;78.33
70921;BME280;58572;48.110;19.838;2022-10-17T03:05:55;99104.88;;;10.30;76.75
70921;BME280;58572;48.110;19.838;2022-10-17T03:08:22;99103.16;;;10.40;76.55
70921;BME280;58572;48.110;19.838;2022-10-17T03:10:49;99108.16;;;10.48;76.59
70921;BME280;58572;48.110;19.838;2022-10-17T03:13:17;98987.28;;;9.74;75.85
70921;BME280;58572;48.110;19.838;2022-10-17T03:15:44;99054.66;;;9.93;76.43
70921;BME280;58572;48.110;19.838;2022-10-17T03:18:12;99109.88;;;10.38;76.06
70921;BME280;58572;48.110;19.838;2022-10-17T03:20:39;99028.81;;;9.91;76.30
70921;BME280;58572;48.110;19.838;2022-10-17T03:23:07;99107.69;;;10.35;76.48
70921;BME280;58572;48.110;19.838;2022-10-17T03:25:34;99111.34;;;10.23;76.69
70921;BME280;58572;48.110;19.838;2022-10-17T03:28:01;99028.09;;;9.79;76.56
70921;BME280;58572;48.110;19.838;2022-10-17T03:30:30;99119.66;;;10.00;78.12
70921;BME280;58572;48.110;19.838;2022-10-17T03:32:57;99116.91;;;10.34;76.55
70921;BME280;58572;48.110;19.838;2022-10-17T03:35:24;99051.94;;;9.93;76.35
70921;BME280;58572;48.110;19.838;2022-10-17T03:37:54;99127.47;;;10.13;77.22
70921;BME280;58572;48.110;19.838;2022-10-17T03:40:22;99124.25;;;10.16;76.75
70921;BME280;58572;48.110;19.838;2022-10-17T03:42:50;99125.03;;;9.95;77.56
70921;BME280;58572;48.110;19.838;2022-10-17T03:45:17;99125.25;;;10.10;78.30
70921;BME280;58572;48.110;19.838;2022-10-17T03:47:44;99134.25;;;9.94;78.44
70921;BME280;58572;48.110;19.838;2022-10-17T03:50:11;99132.91;;;10.13;76.90
70921;BME280;58572;48.110;19.838;2022-10-17T03:52:38;99137.94;;;10.21;76.37
70921;BME280;58572;48.110;19.838;2022-10-17T03:55:05;99142.16;;;9.79;78.70
70921;BME280;58572;48.110;19.838;2022-10-17T03:57:35;99132.28;;;9.73;79.28
70921;BME280;58572;48.110;19.838;2022-10-17T04:00:03;99137.06;;;9.66;79.40
70921;BME280;58572;48.110;19.838;2022-10-17T04:02:31;99136.47;;;9.97;77.28
70921;BME280;58572;48.110;19.838;2022-10-17T04:04:59;99138.91;;;10.15;76.49
70921;BME280;58572;48.110;19.838;2022-10-17T04:07:26;99142.88;;;10.24;76.40
70921;BME280;58572;48.110;19.838;2022-10-17T04:09:53;99140.91;;;10.20;76.64
70921;BME280;58572;48.110;19.838;2022-10-17T04:12:20;99137.13;;;10.21;76.59
70921;BME280;58572;48.110;19.838;2022-10-17T04:14:49;99157.44;;;10.18;76.66
70921;BME280;58572;48.110;19.838;2022-10-17T04:17:16;99152.34;;;10.22;76.91
70921;BME280;58572;48.110;19.838;2022-10-17T04:19:43;99151.66;;;10.15;77.07
70921;BME280;58572;48.110;19.838;2022-10-17T04:22:10;99153.31;;;10.16;77.00
70921;BME280;58572;48.110;19.838;2022-10-17T04:24:37;99156.78;;;10.11;77.17
70921;BME280;58572;48.110;19.838;2022-10-17T04:27:04;99160.25;;;10.07;76.77
70921;BME280;58572;48.110;19.838;2022-10-17T04:29:31;99156.13;;;10.04;76.57
70921;BME280;58572;48.110;19.838;2022-10-17T04:32:00;99152.34;;;10.05;76.71
70921;BME280;58572;48.110;19.838;2022-10-17T04:34:26;99162.53;;;9.48;79.29
70921;BME280;58572;48.110;19.838;2022-10-17T04:36:53;99164.69;;;9.63;78.68
70921;BME280;58572;48.110;19.838;2022-10-17T04:39:20;99169.13;;;10.02;77.47
70921;BME280;58572;48.110;19.838;2022-10-17T04:41:47;99171.28;;;10.00;77.29
70921;BME280;58572;48.110;19.838;2022-10-17T04:44:15;99155.47;;;9.97;77.27
70921;BME280;58572;48.110;19.838;2022-10-17T04:46:42;99073.00;;;9.19;78.00
70921;BME280;58572;48.110;19.838;2022-10-17T04:49:11;99167.41;;;9.96;76.96
70921;BME280;58572;48.110;19.838;2022-10-17T04:51:38;99161.47;;;9.99;76.65
70921;BME280;58572;48.110;19.838;2022-10-17T04:54:05;99167.50;;;10.01;76.67
70921;BME280;58572;48.110;19.838;2022-10-17T04:56:32;99129.91;;;9.59;77.53
70921;BME280;58572;48.110;19.838;2022-10-17T04:58:59;99163.22;;;9.72;78.35
70921;BME280;58572;48.110;19.838;2022-10-17T05:01:27;99167.31;;;9.57;78.53
70921;BME280;58572;48.110;19.838;2022-10-17T05:03:54;99172.75;;;9.57;78.99
70921;BME280;58572;48.110;19.838;2022-10-17T05:06:23;99168.97;;;9.58;78.95
70921;BME280;58572;48.110;19.838;2022-10-17T05:08:52;99171.59;;;9.53;79.54
70921;BME280;58572;48.110;19.838;2022-10-17T05:11:21;99169.94;;;9.24;80.62
70921;BME280;58572;48.110;19.838;2022-10-17T05:13:51;99109.97;;;8.52;81.52
70921;BME280;58572;48.110;19.838;2022-10-17T05:16:19;99190.41;;;9.15;81.72
70921;BME280;58572;48.110;19.838;2022-10-17T05:18:47;99189.63;;;9.31;80.15
70921;BME280;58572;48.110;19.838;2022-10-17T05:21:16;99087.84;;;8.43;82.01
70921;BME280;58572;48.110;19.838;2022-10-17T05:23:45;99204.44;;;9.69;78.30
70921;BME280;58572;48.110;19.838;2022-10-17T05:26:12;99027.31;;;8.14;81.19
70921;BME280;58572;48.110;19.838;2022-10-17T05:28:40;99208.91;;;9.18;82.00
70921;BME280;58572;48.110;19.838;2022-10-17T05:31:09;99212.50;;;9.35;81.74
70921;BME280;58572;48.110;19.838;2022-10-17T05:33:36;99215.28;;;9.52;79.74
70921;BME280;58572;48.110;19.838;2022-10-17T05:36:04;99219.59;;;9.81;78.28
70921;BME280;58572;48.110;19.838;2022-10-17T05:38:32;99224.38;;;9.91;78.09
70921;BME280;58572;48.110;19.838;2022-10-17T05:41:02;99234.63;;;9.55;79.44
70921;BME280;58572;48.110;19.838;2022-10-17T05:43:30;99209.25;;;8.81;82.59
70921;BME280;58572;48.110;19.838;2022-10-17T05:45:57;99233.75;;;9.38;81.10
70921;BME280;58572;48.110;19.838;2022-10-17T05:48:25;99231.91;;;9.55;79.90
70921;BME280;58572;48.110;19.838;2022-10-17T05:50:57;99126.16;;;8.75;81.86
70921;BME280;58572;48.110;19.838;2022-10-17T05:53:24;99240.91;;;9.89;77.91
70921;BME280;58572;48.110;19.838;2022-10-17T05:55:55;99242.84;;;9.60;80.21
70921;BME280;58572;48.110;19.838;2022-10-17T05:58:24;99242.94;;;9.66;79.60
70921;BME280;58572;48.110;19.838;2022-10-17T06:00:51;99255.06;;;9.75;79.99
70921;BME280;58572;48.110;19.838;2022-10-17T06:03:18;99005.63;;;8.26;79.77
70921;BME280;58572;48.110;19.838;2022-10-17T06:05:45;99207.06;;;9.64;79.40
70921;BME280;58572;48.110;19.838;2022-10-17T06:08:12;99262.94;;;9.59;80.38
70921;BME280;58572;48.110;19.838;2022-10-17T06:10:39;99262.88;;;9.43;81.25
70921;BME280;58572;48.110;19.838;2022-10-17T06:13:06;99272.28;;;9.52;81.71
70921;BME280;58572;48.110;19.838;2022-10-17T06:15:35;99271.13;;;9.48;82.95
70921;BME280;58572;48.110;19.838;2022-10-17T06:18:02;99276.44;;;9.71;82.28
70921;BME280;58572;48.110;19.838;2022-10-17T06:20:29;99276.66;;;9.98;80.35
70921;BME280;58572;48.110;19.838;2022-10-17T06:22:56;99287.13;;;10.06;78.53
70921;BME280;58572;48.110;19.838;2022-10-17T06:25:23;99243.53;;;9.68;81.18
70921;BME280;58572;48.110;19.838;2022-10-17T06:27:50;99288.19;;;10.05;78.40
70921;BME280;58572;48.110;19.838;2022-10-17T06:30:17;99228.56;;;9.82;77.63
70921;BME280;58572;48.110;19.838;2022-10-17T06:32:46;99284.88;;;9.86;79.65
70921;BME280;58572;48.110;19.838;2022-10-17T06:35:13;99271.94;;;9.48;83.24
70921;BME280;58572;48.110;19.838;2022-10-17T06:37:40;99287.41;;;9.76;83.71
70921;BME280;58572;48.110;19.838;2022-10-17T06:40:08;99296.97;;;10.24;80.56
70921;BME280;58572;48.110;19.838;2022-10-17T06:42:36;99148.34;;;9.29;80.71
70921;BME280;58572;48.110;19.838;2022-10-17T06:45:04;99294.00;;;10.59;77.47
70921;BME280;58572;48.110;19.838;2022-10-17T06:47:31;99271.28;;;10.48;78.67
70921;BME280;58572;48.110;19.838;2022-10-17T06:50:00;99304.53;;;10.39;77.63
70921;BME280;58572;48.110;19.838;2022-10-17T06:52:29;99314.44;;;10.62;76.20
70921;BME280;58572;48.110;19.838;2022-10-17T06:54:56;99313.59;;;10.28;79.75
70921;BME280;58572;48.110;19.838;2022-10-17T06:57:23;99308.13;;;10.11;80.82
70921;BME280;58572;48.110;19.838;2022-10-17T06:59:51;99318.28;;;9.87;82.91
70921;BME280;58572;48.110;19.838;2022-10-17T07:02:18;99188.59;;;9.20;81.86
70921;BME280;58572;48.110;19.838;2022-10-17T07:04:48;99317.19;;;10.16;82.40
70921;BME280;58572;48.110;19.838;2022-10-17T07:07:16;99320.34;;;10.25;82.37
70921;BME280;58572;48.110;19.838;2022-10-17T07:09:43;99178.50;;;9.44;81.87
70921;BME280;58572;48.110;19.838;2022-10-17T07:12:10;99326.81;;;10.69;79.96
70921;BME280;58572;48.110;19.838;2022-10-17T07:14:37;99322.44;;;10.68;81.40
70921;BME280;58572;48.110;19.838;2022-10-17T07:17:04;99330.56;;;10.85;80.79
70921;BME280;58572;48.110;19.838;2022-10-17T07:19:31;99303.56;;;10.78;80.22
70921;BME280;58572;48.110;19.838;2022-10-17T07:21:59;99332.63;;;10.95;80.34
70921;BME280;58572;48.110;19.838;2022-10-17T07:24:28;99337.81;;;10.96;80.64
70921;BME280;58572;48.110;19.838;2022-10-17T07:26:55;99330.53;;;11.02;80.14
70921;BME280;58572;48.110;19.838;2022-10-17T07:29:22;99327.97;;;11.12;80.36
70921;BME280;58572;48.110;19.838;2022-10-17T07:31:49;99339.94;;;11.11;80.76
70921;BME280;58572;48.110;19.838;2022-10-17T07:34:16;99336.91;;;11.29;77.48
70921;BME280;58572;48.110;19.838;2022-10-17T07:36:44;99334.81;;;11.36;78.22
70921;BME280;58572;48.110;19.838;2022-10-17T07:39:11;99306.97;;;11.29;78.99
70921;BME280;58572;48.110;19.838;2022-10-17T07:41:40;99331.25;;;11.52;79.55
70921;BME280;58572;48.110;19.838;2022-10-17T07:44:07;99278.59;;;11.25;78.07
70921;BME280;58572;48.110;19.838;2022-10-17T07:46:34;99331.19;;;11.47;77.76
70921;BME280;58572;48.110;19.838;2022-10-17T07:49:01;99313.06;;;11.58;76.18
70921;BME280;58572;48.110;19.838;2022-10-17T07:51:28;99345.50;;;11.81;77.89
70921;BME280;58572;48.110;19.838;2022-10-17T07:53:55;99340.03;;;11.81;77.55
70921;BME280;58572;48.110;19.838;2022-10-17T07:56:22;99341.84;;;11.98;75.88
70921;BME280;58572;48.110;19.838;2022-10-17T07:58:51;99290.50;;;11.63;77.82
70921;BME280;58572;48.110;19.838;2022-10-17T08:01:18;99341.28;;;12.23;75.08
70921;BME280;58572;48.110;19.838;2022-10-17T08:03:46;99339.22;;;12.35;74.36
70921;BME280;58572;48.110;19.838;2022-10-17T08:06:14;99346.88;;;12.38;75.87
70921;BME280;58572;48.110;19.838;2022-10-17T08:08:42;99343.31;;;12.64;75.15
70921;BME280;58572;48.110;19.838;2022-10-17T08:11:11;99243.66;;;12.20;73.51
70921;BME280;58572;48.110;19.838;2022-10-17T08:13:39;99338.53;;;12.82;74.49
70921;BME280;58572;48.110;19.838;2022-10-17T08:16:10;99341.91;;;13.41;73.13
70921;BME280;58572;48.110;19.838;2022-10-17T08:18:39;99347.03;;;13.27;71.27
70921;BME280;58572;48.110;19.838;2022-10-17T08:21:06;99336.91;;;13.85;69.60
70921;BME280;58572;48.110;19.838;2022-10-17T08:23:35;99340.72;;;13.84;69.52
70921;BME280;58572;48.110;19.838;2022-10-17T08:26:04;99295.41;;;15.00;63.74
70921;BME280;58572;48.110;19.838;2022-10-17T08:28:33;99335.66;;;14.99;65.62
70921;BME280;58572;48.110;19.838;2022-10-17T08:31:02;99336.56;;;16.58;60.04
70921;BME280;58572;48.110;19.838;2022-10-17T08:33:31;99340.44;;;15.53;63.65
70921;BME280;58572;48.110;19.838;2022-10-17T08:36:00;99337.31;;;16.74;60.39
70921;BME280;58572;48.110;19.838;2022-10-17T08:38:28;99336.22;;;17.04;59.96
70921;BME280;58572;48.110;19.838;2022-10-17T08:40:57;99342.84;;;16.64;60.97
70921;BME280;58572;48.110;19.838;2022-10-17T08:43:36;99320.34;;;16.27;59.55
70921;BME280;58572;48.110;19.838;2022-10-17T08:46:08;99344.44;;;16.75;60.42
70921;BME280;58572;48.110;19.838;2022-10-17T08:48:39;99330.31;;;18.81;52.38
70921;BME280;58572;48.110;19.838;2022-10-17T08:51:12;99320.66;;;18.65;52.31
70921;BME280;58572;48.110;19.838;2022-10-17T08:53:47;99336.72;;;17.82;53.65
70921;BME280;58572;48.110;19.838;2022-10-17T08:56:18;99331.63;;;18.13;54.95
70921;BME280;58572;48.110;19.838;2022-10-17T08:58:45;99327.28;;;18.26;55.08
70921;BME280;58572;48.110;19.838;2022-10-17T09:01:28;99325.34;;;17.17;52.29
70921;BME280;58572;48.110;19.838;2022-10-17T09:04:15;99335.41;;;17.27;56.07
70921;BME280;58572;48.110;19.838;2022-10-17T09:06:53;99335.75;;;17.44;56.06
70921;BME280;58572;48.110;19.838;2022-10-17T09:09:30;99268.72;;;16.69;56.90
70921;BME280;58572;48.110;19.838;2022-10-17T09:12:11;99339.13;;;17.12;57.22
70921;BME280;58572;48.110;19.838;2022-10-17T09:14:59;99334.94;;;17.44;55.78
70921;BME280;58572;48.110;19.838;2022-10-17T09:17:37;99342.19;;;17.35;60.01
70921;BME280;58572;48.110;19.838;2022-10-17T09:20:12;99336.72;;;17.82;55.55
70921;BME280;58572;48.110;19.838;2022-10-17T09:22:43;99329.53;;;18.94;54.80
70921;BME280;58572;48.110;19.838;2022-10-17T09:25:16;99331.53;;;18.75;54.81
70921;BME280;58572;48.110;19.838;2022-10-17T09:27:47;99321.03;;;19.64;51.53
70921;BME280;58572;48.110;19.838;2022-10-17T09:30:24;99323.03;;;19.31;52.75
70921;BME280;58572;48.110;19.838;2022-10-17T09:32:53;99330.22;;;19.73;48.79
70921;BME280;58572;48.110;19.838;2022-10-17T09:35:23;99324.66;;;19.19;53.82
70921;BME280;58572;48.110;19.838;2022-10-17T09:37:51;99333.59;;;18.64;50.88
70921;BME280;58572;48.110;19.838;2022-10-17T09:40:24;99328.47;;;18.01;55.81
70921;BME280;58572;48.110;19.838;2022-10-17T09:42:52;99332.97;;;18.86;54.54
70921;BME280;58572;48.110;19.838;2022-10-17T09:45:21;99341.75;;;18.88;52.40
70921;BME280;58572;48.110;19.838;2022-10-17T09:47:57;99333.69;;;19.65;52.46
70921;BME280;58572;48.110;19.838;2022-10-17T09:50:30;99315.91;;;17.76;51.97
70921;BME280;58572;48.110;19.838;2022-10-17T09:53:01;99342.91;;;18.68;48.96
70921;BME280;58572;48.110;19.838;2022-10-17T09:55:37;99344.09;;;20.09;50.97
70921;BME280;58572;48.110;19.838;2022-10-17T09:58:06;99351.06;;;18.92;54.16
70921;BME280;58572;48.110;19.838;2022-10-17T10:00:35;99353.84;;;18.55;51.88
70921;BME280;58572;48.110;19.838;2022-10-17T10:03:12;99347.56;;;19.46;47.80
70921;BME280;58572;48.110;19.838;2022-10-17T10:05:57;99340.47;;;20.59;47.04
70921;BME280;58572;48.110;19.838;2022-10-17T10:08:27;99345.97;;;18.67;50.43
70921;BME280;58572;48.110;19.838;2022-10-17T10:11:00;99355.41;;;18.42;51.18
70921;BME280;58572;48.110;19.838;2022-10-17T10:13:30;99345.50;;;19.25;48.42
70921;BME280;58572;48.110;19.838;2022-10-17T10:16:14;99346.34;;;18.79;54.85
70921;BME280;58572;48.110;19.838;2022-10-17T10:18:42;99301.94;;;20.18;49.95
70921;BME280;58572;48.110;19.838;2022-10-17T10:21:13;99345.69;;;19.01;54.63
70921;BME280;58572;48.110;19.838;2022-10-17T10:23:41;99354.22;;;18.86;53.79
70921;BME280;58572;48.110;19.838;2022-10-17T10:26:21;99338.59;;;19.68;52.24
70921;BME280;58572;48.110;19.838;2022-10-17T10:28:54;99340.34;;;20.28;52.35
70921;BME280;58572;48.110;19.838;2022-10-17T10:31:30;99341.75;;;18.88;55.19
70921;BME280;58572;48.110;19.838;2022-10-17T10:33:59;99349.69;;;18.76;50.58
70921;BME280;58572;48.110;19.838;2022-10-17T10:36:54;99185.50;;;17.77;50.21
70921;BME280;58572;48.110;19.838;2022-10-17T10:39:40;99337.38;;;18.68;53.28
70921;BME280;58572;48.110;19.838;2022-10-17T10:42:19;99337.25;;;18.78;53.51
70921;BME280;58572;48.110;19.838;2022-10-17T10:44:48;99335.53;;;18.64;49.86
70921;BME280;58572;48.110;19.838;2022-10-17T10:47:19;99333.44;;;18.56;52.87
70921;BME280;58572;48.110;19.838;2022-10-17T10:49:49;99338.09;;;18.04;55.24
70921;BME280;58572;48.110;19.838;2022-10-17T10:52:39;99331.41;;;19.12;50.54
70921;BME280;58572;48.110;19.838;2022-10-17T10:55:19;99290.94;;;20.04;48.82
70921;BME280;58572;48.110;19.838;2022-10-17T10:57:49;99271.97;;;18.41;53.94
70921;BME280;58572;48.110;19.838;2022-10-17T11:00:21;99330.78;;;18.50;54.93
70921;BME280;58572;48.110;19.838;2022-10-17T11:02:57;99324.41;;;19.61;52.63
70921;BME280;58572;48.110;19.838;2022-10-17T11:05:35;99332.09;;;19.04;51.49
70921;BME280;58572;48.110;19.838;2022-10-17T11:08:12;99322.53;;;19.43;48.59
70921;BME280;58572;48.110;19.838;2022-10-17T11:10:45;99322.13;;;20.04;48.61
70921;BME280;58572;48.110;19.838;2022-10-17T11:13:21;99323.00;;;18.90;53.73
70921;BME280;58572;48.110;19.838;2022-10-17T11:15:54;99315.34;;;18.49;55.29
70921;BME280;58572;48.110;19.838;2022-10-17T11:18:26;99310.38;;;19.30;50.09
70921;BME280;58572;48.110;19.838;2022-10-17T11:20:59;99227.25;;;18.17;54.05
70921;BME280;58572;48.110;19.838;2022-10-17T11:23:36;99267.50;;;18.45;50.58
70921;BME280;58572;48.110;19.838;2022-10-17T11:26:10;99259.84;;;17.01;56.92
70921;BME280;58572;48.110;19.838;2022-10-17T11:28:39;99326.31;;;19.33;50.75
70921;BME280;58572;48.110;19.838;2022-10-17T11:31:09;99311.59;;;19.10;52.29
70921;BME280;58572;48.110;19.838;2022-10-17T11:33:43;99319.16;;;17.78;56.40
70921;BME280;58572;48.110;19.838;2022-10-17T11:36:13;99313.78;;;17.68;56.35
70921;BME280;58572;48.110;19.838;2022-10-17T11:38:46;99312.47;;;17.37;57.16
70921;BME280;58572;48.110;19.838;2022-10-17T11:41:18;99258.91;;;16.86;58.10
70921;BME280;58572;48.110;19.838;2022-10-17T11:43:52;99254.25;;;16.87;57.90
70921;BME280;58572;48.110;19.838;2022-10-17T11:46:22;99315.75;;;17.39;58.72
70921;BME280;58572;48.110;19.838;2022-10-17T11:49:05;99295.25;;;17.98;53.66
70921;BME280;58572;48.110;19.838;2022-10-17T11:51:42;99250.84;;;17.19;56.82
70921;BME280;58572;48.110;19.838;2022-10-17T11:54:15;99301.78;;;17.11;59.70
70921;BME280;58572;48.110;19.838;2022-10-17T11:56:52;99308.28;;;16.57;61.50
70921;BME280;58572;48.110;19.838;2022-10-17T11:59:46;99306.56;;;17.24;57.28
70921;BME280;58572;48.110;19.838;2022-10-17T12:02:22;99297.97;;;18.35;49.51
70921;BME280;58572;48.110;19.838;2022-10-17T12:04:57;99301.78;;;18.02;56.97
70921;BME280;58572;48.110;19.838;2022-10-17T12:07:29;99298.31;;;17.01;60.38
70921;BME280;58572;48.110;19.838;2022-10-17T12:10:16;99303.31;;;16.70;61.21
70921;BME280;58572;48.110;19.838;2022-10-17T12:12:45;99293.88;;;17.29;54.03
70921;BME280;58572;48.110;19.838;2022-10-17T12:15:30;99259.78;;;17.77;56.30
70921;BME280;58572;48.110;19.838;2022-10-17T12:17:59;99290.75;;;18.39;53.05
70921;BME280;58572;48.110;19.838;2022-10-17T12:20:32;99293.53;;;17.11;58.98
70921;BME280;58572;48.110;19.838;2022-10-17T12:23:22;99291.72;;;17.26;58.44
70921;BME280;58572;48.110;19.838;2022-10-17T12:25:53;99287.69;;;16.94;60.02
70921;BME280;58572;48.110;19.838;2022-10-17T12:28:27;99289.06;;;17.63;58.01
70921;BME280;58572;48.110;19.838;2022-10-17T12:30:59;99281.09;;;17.85;57.56
70921;BME280;58572;48.110;19.838;2022-10-17T12:33:31;99283.56;;;18.06;55.24
70921;BME280;58572;48.110;19.838;2022-10-17T12:42:33;99292.22;;;16.80;61.81
70921;BME280;58572;48.110;19.838;2022-10-17T12:51:19;99283.25;;;16.98;57.62
70921;BME280;58572;48.110;19.838;2022-10-17T12:53:52;99289.72;;;17.07;59.17
70921;BME280;58572;48.110;19.838;2022-10-17T12:56:30;99280.31;;;16.55;62.03
70921;BME280;58572;48.110;19.838;2022-10-17T12:59:07;99273.88;;;17.71;56.38
70921;BME280;58572;48.110;19.838;2022-10-17T13:01:36;99281.91;;;16.61;60.22
70921;BME280;58572;48.110;19.838;2022-10-17T13:04:08;99284.19;;;16.49;63.17
70921;BME280;58572;48.110;19.838;2022-10-17T13:06:37;99279.41;;;16.31;62.65
70921;BME280;58572;48.110;19.838;2022-10-17T13:09:12;99285.03;;;16.16;64.42
70921;BME280;58572;48.110;19.838;2022-10-17T13:11:41;99278.69;;;16.20;63.82
70921;BME280;58572;48.110;19.838;2022-10-17T13:14:10;99276.28;;;16.09;63.80
70921;BME280;58572;48.110;19.838;2022-10-17T13:16:48;99280.06;;;16.18;63.59
70921;BME280;58572;48.110;19.838;2022-10-17T13:19:18;99277.34;;;16.13;63.87
70921;BME280;58572;48.110;19.838;2022-10-17T13:21:51;99264.81;;;16.02;63.40
70921;BME280;58572;48.110;19.838;2022-10-17T13:24:22;99276.38;;;15.99;64.67